Aviation Digital Data Service (ADDS)

Output produced by METARs form (0438 UTC 19 August 2019)
found at http://www.aviationweather.gov/metar/data/
 
METAR text: WBGG 190430Z VRB03KT 9999 SCT018 BKN300 33/23 Q1010 NOSIG
Conditions at: WBGG (KUCHING (CIV/MIL, MY) observed 0430 UTC 19 August 2019
Temperature: 33.0°C (91°F)
Dewpoint: 23.0°C (73°F) [RH = 56%]
Pressure (altimeter): 29.82 inches Hg (1010.0 mb)
Winds: variable direction winds at 3 MPH (3 knots; 1.5 m/s)
Visibility: 6 or more miles (10+ km)
Ceiling: 30000 feet AGL
Clouds: scattered clouds at 1800 feet AGL
broken clouds at 30000 feet AGL
Weather: no significant weather observed at this time

METAR text: WBGG 190400Z VRB04KT 9999 SCT018 BKN300 32/24 Q1011 NOSIG
Conditions at: WBGG (KUCHING (CIV/MIL, MY) observed 0400 UTC 19 August 2019
Temperature: 32.0°C (90°F)
Dewpoint: 24.0°C (75°F) [RH = 63%]
Pressure (altimeter): 29.85 inches Hg (1011.0 mb)
Winds: variable direction winds at 5 MPH (4 knots; 2.1 m/s)
Visibility: 6 or more miles (10+ km)
Ceiling: 30000 feet AGL
Clouds: scattered clouds at 1800 feet AGL
broken clouds at 30000 feet AGL
Weather: no significant weather observed at this time

METAR text: WBGG 190330Z VRB01KT 9999 SCT016 BKN300 32/25 Q1011 NOSIG
Conditions at: WBGG (KUCHING (CIV/MIL, MY) observed 0330 UTC 19 August 2019
Temperature: 32.0°C (90°F)
Dewpoint: 25.0°C (77°F) [RH = 67%]
Pressure (altimeter): 29.85 inches Hg (1011.0 mb)
Winds: variable direction winds at 1 MPH (1 knots; 0.5 m/s)
Visibility: 6 or more miles (10+ km)
Ceiling: 30000 feet AGL
Clouds: scattered clouds at 1600 feet AGL
broken clouds at 30000 feet AGL
Weather: no significant weather observed at this time

METAR text: WBGG 190300Z 16004KT 080V240 9999 SCT016 BKN300 31/24 Q1012 NOSIG
Conditions at: WBGG (KUCHING (CIV/MIL, MY) observed 0300 UTC 19 August 2019
Temperature: 31.0°C (88°F)
Dewpoint: 24.0°C (75°F) [RH = 66%]
Pressure (altimeter): 29.88 inches Hg (1012.0 mb)
Winds: from the SSE (160 degrees) at 5 MPH (4 knots; 2.1 m/s)
Visibility: 6 or more miles (10+ km)
Ceiling: 30000 feet AGL
Clouds: scattered clouds at 1600 feet AGL
broken clouds at 30000 feet AGL
Weather: no significant weather observed at this time

METAR text: WBGG 190230Z 10005KT 020V160 9999 SCT016 BKN300 31/25 Q1012 NOSIG
Conditions at: WBGG (KUCHING (CIV/MIL, MY) observed 0230 UTC 19 August 2019
Temperature: 31.0°C (88°F)
Dewpoint: 25.0°C (77°F) [RH = 71%]
Pressure (altimeter): 29.88 inches Hg (1012.0 mb)
Winds: from the E (100 degrees) at 6 MPH (5 knots; 2.6 m/s)
Visibility: 6 or more miles (10+ km)
Ceiling: 30000 feet AGL
Clouds: scattered clouds at 1600 feet AGL
broken clouds at 30000 feet AGL
Weather: no significant weather observed at this time

METAR text: WBGG 190200Z 14003KT 100V200 9999 FEW014 BKN300 30/25 Q1012 NOSIG
Conditions at: WBGG (KUCHING (CIV/MIL, MY) observed 0200 UTC 19 August 2019
Temperature: 30.0°C (86°F)
Dewpoint: 25.0°C (77°F) [RH = 75%]
Pressure (altimeter): 29.88 inches Hg (1012.0 mb)
Winds: from the SE (140 degrees) at 3 MPH (3 knots; 1.5 m/s)
Visibility: 6 or more miles (10+ km)
Ceiling: 30000 feet AGL
Clouds: few clouds at 1400 feet AGL
broken clouds at 30000 feet AGL
Weather: no significant weather observed at this time

METAR text: WBGG 190130Z VRB03KT 9999 FEW012 BKN300 29/25 Q1012 NOSIG
Conditions at: WBGG (KUCHING (CIV/MIL, MY) observed 0130 UTC 19 August 2019
Temperature: 29.0°C (84°F)
Dewpoint: 25.0°C (77°F) [RH = 79%]
Pressure (altimeter): 29.88 inches Hg (1012.0 mb)
Winds: variable direction winds at 3 MPH (3 knots; 1.5 m/s)
Visibility: 6 or more miles (10+ km)
Ceiling: 30000 feet AGL
Clouds: few clouds at 1200 feet AGL
broken clouds at 30000 feet AGL
Weather: no significant weather observed at this time

METAR text: WBGG 190100Z 14003KT 100V170 9999 FEW012 BKN300 28/24 Q1012 NOSIG
Conditions at: WBGG (KUCHING (CIV/MIL, MY) observed 0100 UTC 19 August 2019
Temperature: 28.0°C (82°F)
Dewpoint: 24.0°C (75°F) [RH = 79%]
Pressure (altimeter): 29.88 inches Hg (1012.0 mb)
Winds: from the SE (140 degrees) at 3 MPH (3 knots; 1.5 m/s)
Visibility: 6 or more miles (10+ km)
Ceiling: 30000 feet AGL
Clouds: few clouds at 1200 feet AGL
broken clouds at 30000 feet AGL
Weather: no significant weather observed at this time

METAR text: WBGG 190030Z 00000KT 9999 FEW020 BKN300 27/24 Q1012 NOSIG
Conditions at: WBGG (KUCHING (CIV/MIL, MY) observed 0030 UTC 19 August 2019
Temperature: 27.0°C (81°F)
Dewpoint: 24.0°C (75°F) [RH = 84%]
Pressure (altimeter): 29.88 inches Hg (1012.0 mb)
Winds: calm
Visibility: 6 or more miles (10+ km)
Ceiling: 30000 feet AGL
Clouds: few clouds at 2000 feet AGL
broken clouds at 30000 feet AGL
Weather: no significant weather observed at this time

METAR text: WBGG 190000Z 00000KT 9999 FEW020 BKN300 25/24 Q1012 NOSIG
Conditions at: WBGG (KUCHING (CIV/MIL, MY) observed 0000 UTC 19 August 2019
Temperature: 25.0°C (77°F)
Dewpoint: 24.0°C (75°F) [RH = 94%]
Pressure (altimeter): 29.88 inches Hg (1012.0 mb)
Winds: calm
Visibility: 6 or more miles (10+ km)
Ceiling: 30000 feet AGL
Clouds: few clouds at 2000 feet AGL
broken clouds at 30000 feet AGL
Weather: no significant weather observed at this time

METAR text: WBGG 182330Z 00000KT 9999 FEW015CB BKN300 24/23 Q1012 NOSIG
Conditions at: WBGG (KUCHING (CIV/MIL, MY) observed 2330 UTC 18 August 2019
Temperature: 24.0°C (75°F)
Dewpoint: 23.0°C (73°F) [RH = 94%]
Pressure (altimeter): 29.88 inches Hg (1012.0 mb)
Winds: calm
Visibility: 6 or more miles (10+ km)
Ceiling: 30000 feet AGL
Clouds: few clouds at 1500 feet AGL
broken clouds at 30000 feet AGL
Weather: no significant weather observed at this time

METAR text: WBGG 182300Z 00000KT 9999 FEW015CB BKN300 24/23 Q1012 NOSIG
Conditions at: WBGG (KUCHING (CIV/MIL, MY) observed 2300 UTC 18 August 2019
Temperature: 24.0°C (75°F)
Dewpoint: 23.0°C (73°F) [RH = 94%]
Pressure (altimeter): 29.88 inches Hg (1012.0 mb)
Winds: calm
Visibility: 6 or more miles (10+ km)
Ceiling: 30000 feet AGL
Clouds: few clouds at 1500 feet AGL
broken clouds at 30000 feet AGL
Weather: no significant weather observed at this time

METAR text: WBGG 182230Z VRB02KT 9999 FEW015CB BKN300 24/23 Q1011 NOSIG
Conditions at: WBGG (KUCHING (CIV/MIL, MY) observed 2230 UTC 18 August 2019
Temperature: 24.0°C (75°F)
Dewpoint: 23.0°C (73°F) [RH = 94%]
Pressure (altimeter): 29.85 inches Hg (1011.0 mb)
Winds: variable direction winds at 2 MPH (2 knots; 1.0 m/s)
Visibility: 6 or more miles (10+ km)
Ceiling: 30000 feet AGL
Clouds: few clouds at 1500 feet AGL
broken clouds at 30000 feet AGL
Weather: no significant weather observed at this time

METAR text: WBGG 182200Z VRB02KT 8000 FEW020 BKN300 23/23 Q1011 NOSIG
Conditions at: WBGG (KUCHING (CIV/MIL, MY) observed 2200 UTC 18 August 2019
Temperature: 23.0°C (73°F)
Dewpoint: 23.0°C (73°F) [RH = 100%]
Pressure (altimeter): 29.85 inches Hg (1011.0 mb)
Winds: variable direction winds at 2 MPH (2 knots; 1.0 m/s)
Visibility: 5 miles ( 8 km)
Ceiling: 30000 feet AGL
Clouds: few clouds at 2000 feet AGL
broken clouds at 30000 feet AGL
Weather: no significant weather observed at this time

METAR text: WBGG 182130Z 00000KT 8000 FEW020 BKN300 23/23 Q1011 NOSIG
Conditions at: WBGG (KUCHING (CIV/MIL, MY) observed 2130 UTC 18 August 2019
Temperature: 23.0°C (73°F)
Dewpoint: 23.0°C (73°F) [RH = 100%]
Pressure (altimeter): 29.85 inches Hg (1011.0 mb)
Winds: calm
Visibility: 5 miles ( 8 km)
Ceiling: 30000 feet AGL
Clouds: few clouds at 2000 feet AGL
broken clouds at 30000 feet AGL
Weather: no significant weather observed at this time

METAR text: WBGG 182100Z 00000KT 8000 FEW020 BKN300 24/23 Q1011 NOSIG
Conditions at: WBGG (KUCHING (CIV/MIL, MY) observed 2100 UTC 18 August 2019
Temperature: 24.0°C (75°F)
Dewpoint: 23.0°C (73°F) [RH = 94%]
Pressure (altimeter): 29.85 inches Hg (1011.0 mb)
Winds: calm
Visibility: 5 miles ( 8 km)
Ceiling: 30000 feet AGL
Clouds: few clouds at 2000 feet AGL
broken clouds at 30000 feet AGL
Weather: no significant weather observed at this time

METAR text: WBGG 182030Z VRB01KT 8000 FEW020 BKN300 24/23 Q1011 NOSIG
Conditions at: WBGG (KUCHING (CIV/MIL, MY) observed 2030 UTC 18 August 2019
Temperature: 24.0°C (75°F)
Dewpoint: 23.0°C (73°F) [RH = 94%]
Pressure (altimeter): 29.85 inches Hg (1011.0 mb)
Winds: variable direction winds at 1 MPH (1 knots; 0.5 m/s)
Visibility: 5 miles ( 8 km)
Ceiling: 30000 feet AGL
Clouds: few clouds at 2000 feet AGL
broken clouds at 30000 feet AGL
Weather: no significant weather observed at this time

METAR text: WBGG 182000Z VRB03KT 8000 FEW020 BKN300 24/23 Q1011 NOSIG
Conditions at: WBGG (KUCHING (CIV/MIL, MY) observed 2000 UTC 18 August 2019
Temperature: 24.0°C (75°F)
Dewpoint: 23.0°C (73°F) [RH = 94%]
Pressure (altimeter): 29.85 inches Hg (1011.0 mb)
Winds: variable direction winds at 3 MPH (3 knots; 1.5 m/s)
Visibility: 5 miles ( 8 km)
Ceiling: 30000 feet AGL
Clouds: few clouds at 2000 feet AGL
broken clouds at 30000 feet AGL
Weather: no significant weather observed at this time

METAR text: WBGG 181930Z VRB02KT 9999 FEW020 BKN300 24/23 Q1011 NOSIG
Conditions at: WBGG (KUCHING (CIV/MIL, MY) observed 1930 UTC 18 August 2019
Temperature: 24.0°C (75°F)
Dewpoint: 23.0°C (73°F) [RH = 94%]
Pressure (altimeter): 29.85 inches Hg (1011.0 mb)
Winds: variable direction winds at 2 MPH (2 knots; 1.0 m/s)
Visibility: 6 or more miles (10+ km)
Ceiling: 30000 feet AGL
Clouds: few clouds at 2000 feet AGL
broken clouds at 30000 feet AGL
Weather: no significant weather observed at this time

METAR text: WBGG 181900Z VRB03KT 9999 FEW020 SCT150 BKN300 24/23 Q1011 NOSIG
Conditions at: WBGG (KUCHING (CIV/MIL, MY) observed 1900 UTC 18 August 2019
Temperature: 24.0°C (75°F)
Dewpoint: 23.0°C (73°F) [RH = 94%]
Pressure (altimeter): 29.85 inches Hg (1011.0 mb)
Winds: variable direction winds at 3 MPH (3 knots; 1.5 m/s)
Visibility: 6 or more miles (10+ km)
Ceiling: 30000 feet AGL
Clouds: few clouds at 2000 feet AGL
scattered clouds at 15000 feet AGL
broken clouds at 30000 feet AGL
Weather: no significant weather observed at this time

METAR text: WBGG 181830Z VRB02KT 9999 FEW020 SCT150 BKN300 24/24 Q1011 NOSIG
Conditions at: WBGG (KUCHING (CIV/MIL, MY) observed 1830 UTC 18 August 2019
Temperature: 24.0°C (75°F)
Dewpoint: 24.0°C (75°F) [RH = 100%]
Pressure (altimeter): 29.85 inches Hg (1011.0 mb)
Winds: variable direction winds at 2 MPH (2 knots; 1.0 m/s)
Visibility: 6 or more miles (10+ km)
Ceiling: 30000 feet AGL
Clouds: few clouds at 2000 feet AGL
scattered clouds at 15000 feet AGL
broken clouds at 30000 feet AGL
Weather: no significant weather observed at this time

METAR text: WBGG 181800Z VRB02KT 9999 FEW020 SCT150 BKN300 24/24 Q1011 NOSIG
Conditions at: WBGG (KUCHING (CIV/MIL, MY) observed 1800 UTC 18 August 2019
Temperature: 24.0°C (75°F)
Dewpoint: 24.0°C (75°F) [RH = 100%]
Pressure (altimeter): 29.85 inches Hg (1011.0 mb)
Winds: variable direction winds at 2 MPH (2 knots; 1.0 m/s)
Visibility: 6 or more miles (10+ km)
Ceiling: 30000 feet AGL
Clouds: few clouds at 2000 feet AGL
scattered clouds at 15000 feet AGL
broken clouds at 30000 feet AGL
Weather: no significant weather observed at this time

METAR text: WBGG 181730Z VRB02KT 9999 FEW020 SCT150 BKN300 24/23 Q1012 NOSIG
Conditions at: WBGG (KUCHING (CIV/MIL, MY) observed 1730 UTC 18 August 2019
Temperature: 24.0°C (75°F)
Dewpoint: 23.0°C (73°F) [RH = 94%]
Pressure (altimeter): 29.88 inches Hg (1012.0 mb)
Winds: variable direction winds at 2 MPH (2 knots; 1.0 m/s)
Visibility: 6 or more miles (10+ km)
Ceiling: 30000 feet AGL
Clouds: few clouds at 2000 feet AGL
scattered clouds at 15000 feet AGL
broken clouds at 30000 feet AGL
Weather: no significant weather observed at this time

METAR text: WBGG 181700Z 00000KT 9999 FEW020 SCT150 BKN300 25/24 Q1012 NOSIG
Conditions at: WBGG (KUCHING (CIV/MIL, MY) observed 1700 UTC 18 August 2019
Temperature: 25.0°C (77°F)
Dewpoint: 24.0°C (75°F) [RH = 94%]
Pressure (altimeter): 29.88 inches Hg (1012.0 mb)
Winds: calm
Visibility: 6 or more miles (10+ km)
Ceiling: 30000 feet AGL
Clouds: few clouds at 2000 feet AGL
scattered clouds at 15000 feet AGL
broken clouds at 30000 feet AGL
Weather: no significant weather observed at this time

METAR text: WBGG 181630Z VRB01KT 9999 FEW020 SCT150 BKN300 24/23 Q1012 NOSIG
Conditions at: WBGG (KUCHING (CIV/MIL, MY) observed 1630 UTC 18 August 2019
Temperature: 24.0°C (75°F)
Dewpoint: 23.0°C (73°F) [RH = 94%]
Pressure (altimeter): 29.88 inches Hg (1012.0 mb)
Winds: variable direction winds at 1 MPH (1 knots; 0.5 m/s)
Visibility: 6 or more miles (10+ km)
Ceiling: 30000 feet AGL
Clouds: few clouds at 2000 feet AGL
scattered clouds at 15000 feet AGL
broken clouds at 30000 feet AGL
Weather: no significant weather observed at this time

METAR text: WBGG 181600Z VRB03KT 9999 FEW020 SCT150 BKN300 25/24 Q1012 NOSIG
Conditions at: WBGG (KUCHING (CIV/MIL, MY) observed 1600 UTC 18 August 2019
Temperature: 25.0°C (77°F)
Dewpoint: 24.0°C (75°F) [RH = 94%]
Pressure (altimeter): 29.88 inches Hg (1012.0 mb)
Winds: variable direction winds at 3 MPH (3 knots; 1.5 m/s)
Visibility: 6 or more miles (10+ km)
Ceiling: 30000 feet AGL
Clouds: few clouds at 2000 feet AGL
scattered clouds at 15000 feet AGL
broken clouds at 30000 feet AGL
Weather: no significant weather observed at this time

METAR text: WBGG 181530Z 00000KT 9999 FEW020 SCT150 BKN300 25/24 Q1012 NOSIG
Conditions at: WBGG (KUCHING (CIV/MIL, MY) observed 1530 UTC 18 August 2019
Temperature: 25.0°C (77°F)
Dewpoint: 24.0°C (75°F) [RH = 94%]
Pressure (altimeter): 29.88 inches Hg (1012.0 mb)
Winds: calm
Visibility: 6 or more miles (10+ km)
Ceiling: 30000 feet AGL
Clouds: few clouds at 2000 feet AGL
scattered clouds at 15000 feet AGL
broken clouds at 30000 feet AGL
Weather: no significant weather observed at this time

METAR text: WBGG 181500Z 00000KT 9999 FEW020 SCT150 BKN300 25/24 Q1012 NOSIG
Conditions at: WBGG (KUCHING (CIV/MIL, MY) observed 1500 UTC 18 August 2019
Temperature: 25.0°C (77°F)
Dewpoint: 24.0°C (75°F) [RH = 94%]
Pressure (altimeter): 29.88 inches Hg (1012.0 mb)
Winds: calm
Visibility: 6 or more miles (10+ km)
Ceiling: 30000 feet AGL
Clouds: few clouds at 2000 feet AGL
scattered clouds at 15000 feet AGL
broken clouds at 30000 feet AGL
Weather: no significant weather observed at this time

METAR text: WBGG 181430Z 00000KT 9999 FEW020 SCT150 BKN300 26/24 Q1012 NOSIG
Conditions at: WBGG (KUCHING (CIV/MIL, MY) observed 1430 UTC 18 August 2019
Temperature: 26.0°C (79°F)
Dewpoint: 24.0°C (75°F) [RH = 89%]
Pressure (altimeter): 29.88 inches Hg (1012.0 mb)
Winds: calm
Visibility: 6 or more miles (10+ km)
Ceiling: 30000 feet AGL
Clouds: few clouds at 2000 feet AGL
scattered clouds at 15000 feet AGL
broken clouds at 30000 feet AGL
Weather: no significant weather observed at this time

METAR text: WBGG 181400Z 00000KT 9999 FEW020 SCT150 BKN300 26/24 Q1012 NOSIG
Conditions at: WBGG (KUCHING (CIV/MIL, MY) observed 1400 UTC 18 August 2019
Temperature: 26.0°C (79°F)
Dewpoint: 24.0°C (75°F) [RH = 89%]
Pressure (altimeter): 29.88 inches Hg (1012.0 mb)
Winds: calm
Visibility: 6 or more miles (10+ km)
Ceiling: 30000 feet AGL
Clouds: few clouds at 2000 feet AGL
scattered clouds at 15000 feet AGL
broken clouds at 30000 feet AGL
Weather: no significant weather observed at this time

METAR text: WBGG 181330Z VRB01KT 9999 FEW020 SCT150 BKN300 26/24 Q1011 NOSIG
Conditions at: WBGG (KUCHING (CIV/MIL, MY) observed 1330 UTC 18 August 2019
Temperature: 26.0°C (79°F)
Dewpoint: 24.0°C (75°F) [RH = 89%]
Pressure (altimeter): 29.85 inches Hg (1011.0 mb)
Winds: variable direction winds at 1 MPH (1 knots; 0.5 m/s)
Visibility: 6 or more miles (10+ km)
Ceiling: 30000 feet AGL
Clouds: few clouds at 2000 feet AGL
scattered clouds at 15000 feet AGL
broken clouds at 30000 feet AGL
Weather: no significant weather observed at this time

METAR text: WBGG 181300Z 00000KT 9999 FEW020 SCT150 BKN300 26/24 Q1011 NOSIG
Conditions at: WBGG (KUCHING (CIV/MIL, MY) observed 1300 UTC 18 August 2019
Temperature: 26.0°C (79°F)
Dewpoint: 24.0°C (75°F) [RH = 89%]
Pressure (altimeter): 29.85 inches Hg (1011.0 mb)
Winds: calm
Visibility: 6 or more miles (10+ km)
Ceiling: 30000 feet AGL
Clouds: few clouds at 2000 feet AGL
scattered clouds at 15000 feet AGL
broken clouds at 30000 feet AGL
Weather: no significant weather observed at this time

METAR text: WBGG 181230Z VRB01KT 9999 FEW020 SCT150 BKN300 26/24 Q1011 NOSIG
Conditions at: WBGG (KUCHING (CIV/MIL, MY) observed 1230 UTC 18 August 2019
Temperature: 26.0°C (79°F)
Dewpoint: 24.0°C (75°F) [RH = 89%]
Pressure (altimeter): 29.85 inches Hg (1011.0 mb)
Winds: variable direction winds at 1 MPH (1 knots; 0.5 m/s)
Visibility: 6 or more miles (10+ km)
Ceiling: 30000 feet AGL
Clouds: few clouds at 2000 feet AGL
scattered clouds at 15000 feet AGL
broken clouds at 30000 feet AGL
Weather: no significant weather observed at this time

METAR text: WBGG 181200Z 00000KT 9999 FEW020 SCT150 BKN300 26/24 Q1010 NOSIG
Conditions at: WBGG (KUCHING (CIV/MIL, MY) observed 1200 UTC 18 August 2019
Temperature: 26.0°C (79°F)
Dewpoint: 24.0°C (75°F) [RH = 89%]
Pressure (altimeter): 29.82 inches Hg (1010.0 mb)
Winds: calm
Visibility: 6 or more miles (10+ km)
Ceiling: 30000 feet AGL
Clouds: few clouds at 2000 feet AGL
scattered clouds at 15000 feet AGL
broken clouds at 30000 feet AGL
Weather: no significant weather observed at this time

METAR text: WBGG 181130Z 00000KT 9999 FEW020 SCT150 BKN300 27/24 Q1010 NOSIG
Conditions at: WBGG (KUCHING (CIV/MIL, MY) observed 1130 UTC 18 August 2019
Temperature: 27.0°C (81°F)
Dewpoint: 24.0°C (75°F) [RH = 84%]
Pressure (altimeter): 29.82 inches Hg (1010.0 mb)
Winds: calm
Visibility: 6 or more miles (10+ km)
Ceiling: 30000 feet AGL
Clouds: few clouds at 2000 feet AGL
scattered clouds at 15000 feet AGL
broken clouds at 30000 feet AGL
Weather: no significant weather observed at this time

METAR text: WBGG 181100Z VRB03KT 9999 FEW020 SCT150 BKN300 27/24 Q1010 NOSIG
Conditions at: WBGG (KUCHING (CIV/MIL, MY) observed 1100 UTC 18 August 2019
Temperature: 27.0°C (81°F)
Dewpoint: 24.0°C (75°F) [RH = 84%]
Pressure (altimeter): 29.82 inches Hg (1010.0 mb)
Winds: variable direction winds at 3 MPH (3 knots; 1.5 m/s)
Visibility: 6 or more miles (10+ km)
Ceiling: 30000 feet AGL
Clouds: few clouds at 2000 feet AGL
scattered clouds at 15000 feet AGL
broken clouds at 30000 feet AGL
Weather: no significant weather observed at this time

METAR text: WBGG 181030Z VRB02KT 9999 FEW020 BKN300 28/24 Q1009 NOSIG
Conditions at: WBGG (KUCHING (CIV/MIL, MY) observed 1030 UTC 18 August 2019
Temperature: 28.0°C (82°F)
Dewpoint: 24.0°C (75°F) [RH = 79%]
Pressure (altimeter): 29.79 inches Hg (1009.0 mb)
Winds: variable direction winds at 2 MPH (2 knots; 1.0 m/s)
Visibility: 6 or more miles (10+ km)
Ceiling: 30000 feet AGL
Clouds: few clouds at 2000 feet AGL
broken clouds at 30000 feet AGL
Weather: no significant weather observed at this time

METAR text: WBGG 181000Z VRB02KT 9999 FEW018 SCT150 BKN300 28/24 Q1009 NOSIG
Conditions at: WBGG (KUCHING (CIV/MIL, MY) observed 1000 UTC 18 August 2019
Temperature: 28.0°C (82°F)
Dewpoint: 24.0°C (75°F) [RH = 79%]
Pressure (altimeter): 29.79 inches Hg (1009.0 mb)
Winds: variable direction winds at 2 MPH (2 knots; 1.0 m/s)
Visibility: 6 or more miles (10+ km)
Ceiling: 30000 feet AGL
Clouds: few clouds at 1800 feet AGL
scattered clouds at 15000 feet AGL
broken clouds at 30000 feet AGL
Weather: no significant weather observed at this time

METAR text: WBGG 180930Z 15003KT 110V170 9999 FEW018 SCT150 BKN300 28/24 Q1009 NOSIG
Conditions at: WBGG (KUCHING (CIV/MIL, MY) observed 0930 UTC 18 August 2019
Temperature: 28.0°C (82°F)
Dewpoint: 24.0°C (75°F) [RH = 79%]
Pressure (altimeter): 29.79 inches Hg (1009.0 mb)
Winds: from the SSE (150 degrees) at 3 MPH (3 knots; 1.5 m/s)
Visibility: 6 or more miles (10+ km)
Ceiling: 30000 feet AGL
Clouds: few clouds at 1800 feet AGL
scattered clouds at 15000 feet AGL
broken clouds at 30000 feet AGL
Weather: no significant weather observed at this time

METAR text: WBGG 180900Z 18003KT 120V230 9999 SCT018 SCT150 BKN300 29/24 Q1009 NOSIG
Conditions at: WBGG (KUCHING (CIV/MIL, MY) observed 0900 UTC 18 August 2019
Temperature: 29.0°C (84°F)
Dewpoint: 24.0°C (75°F) [RH = 74%]
Pressure (altimeter): 29.79 inches Hg (1009.0 mb)
Winds: from the S (180 degrees) at 3 MPH (3 knots; 1.5 m/s)
Visibility: 6 or more miles (10+ km)
Ceiling: 30000 feet AGL
Clouds: scattered clouds at 1800 feet AGL
scattered clouds at 15000 feet AGL
broken clouds at 30000 feet AGL
Weather: no significant weather observed at this time

METAR text: WBGG 180830Z VRB02KT 9999 SCT018 BKN150 29/24 Q1009 NOSIG
Conditions at: WBGG (KUCHING (CIV/MIL, MY) observed 0830 UTC 18 August 2019
Temperature: 29.0°C (84°F)
Dewpoint: 24.0°C (75°F) [RH = 74%]
Pressure (altimeter): 29.79 inches Hg (1009.0 mb)
Winds: variable direction winds at 2 MPH (2 knots; 1.0 m/s)
Visibility: 6 or more miles (10+ km)
Ceiling: 15000 feet AGL
Clouds: scattered clouds at 1800 feet AGL
broken clouds at 15000 feet AGL
Weather: no significant weather observed at this time

METAR text: WBGG 180800Z VRB02KT 8000 SCT018 BKN150 28/25 Q1010 NOSIG
Conditions at: WBGG (KUCHING (CIV/MIL, MY) observed 0800 UTC 18 August 2019
Temperature: 28.0°C (82°F)
Dewpoint: 25.0°C (77°F) [RH = 84%]
Pressure (altimeter): 29.82 inches Hg (1010.0 mb)
Winds: variable direction winds at 2 MPH (2 knots; 1.0 m/s)
Visibility: 5 miles ( 8 km)
Ceiling: 15000 feet AGL
Clouds: scattered clouds at 1800 feet AGL
broken clouds at 15000 feet AGL
Weather: no significant weather observed at this time

METAR text: WBGG 180730Z 17003KT 100V220 7000 SCT018 BKN150 28/25 Q1010 NOSIG
Conditions at: WBGG (KUCHING (CIV/MIL, MY) observed 0730 UTC 18 August 2019
Temperature: 28.0°C (82°F)
Dewpoint: 25.0°C (77°F) [RH = 84%]
Pressure (altimeter): 29.82 inches Hg (1010.0 mb)
Winds: from the S (170 degrees) at 3 MPH (3 knots; 1.5 m/s)
Visibility: 4 miles ( 7 km)
Ceiling: 15000 feet AGL
Clouds: scattered clouds at 1800 feet AGL
broken clouds at 15000 feet AGL
Weather: no significant weather observed at this time

METAR text: WBGG 180700Z 17003KT 120V200 6000 SCT016 BKN150 28/25 Q1010 NOSIG
Conditions at: WBGG (KUCHING (CIV/MIL, MY) observed 0700 UTC 18 August 2019
Temperature: 28.0°C (82°F)
Dewpoint: 25.0°C (77°F) [RH = 84%]
Pressure (altimeter): 29.82 inches Hg (1010.0 mb)
Winds: from the S (170 degrees) at 3 MPH (3 knots; 1.5 m/s)
Visibility: 4 miles ( 6 km)
Ceiling: 15000 feet AGL
Clouds: scattered clouds at 1600 feet AGL
broken clouds at 15000 feet AGL
Weather: no significant weather observed at this time

METAR text: WBGG 180630Z VRB02KT 6000 SCT014 BKN150 29/24 Q1011 NOSIG
Conditions at: WBGG (KUCHING (CIV/MIL, MY) observed 0630 UTC 18 August 2019
Temperature: 29.0°C (84°F)
Dewpoint: 24.0°C (75°F) [RH = 74%]
Pressure (altimeter): 29.85 inches Hg (1011.0 mb)
Winds: variable direction winds at 2 MPH (2 knots; 1.0 m/s)
Visibility: 4 miles ( 6 km)
Ceiling: 15000 feet AGL
Clouds: scattered clouds at 1400 feet AGL
broken clouds at 15000 feet AGL
Weather: no significant weather observed at this time

METAR text: WBGG 180600Z VRB01KT 6000 SCT014 BKN150 29/24 Q1011 NOSIG
Conditions at: WBGG (KUCHING (CIV/MIL, MY) observed 0600 UTC 18 August 2019
Temperature: 29.0°C (84°F)
Dewpoint: 24.0°C (75°F) [RH = 74%]
Pressure (altimeter): 29.85 inches Hg (1011.0 mb)
Winds: variable direction winds at 1 MPH (1 knots; 0.5 m/s)
Visibility: 4 miles ( 6 km)
Ceiling: 15000 feet AGL
Clouds: scattered clouds at 1400 feet AGL
broken clouds at 15000 feet AGL
Weather: no significant weather observed at this time

METAR text: WBGG 180530Z 04003KT 320V120 4000 HZ SCT012 BKN150 28/25 Q1012 NOSIG
Conditions at: WBGG (KUCHING (CIV/MIL, MY) observed 0530 UTC 18 August 2019
Temperature: 28.0°C (82°F)
Dewpoint: 25.0°C (77°F) [RH = 84%]
Pressure (altimeter): 29.88 inches Hg (1012.0 mb)
Winds: from the NE (40 degrees) at 3 MPH (3 knots; 1.5 m/s)
Visibility: 2.49 miles (4.01 km)
Ceiling: 15000 feet AGL
Clouds: scattered clouds at 1200 feet AGL
broken clouds at 15000 feet AGL
Weather: HZ  (haze)

METAR text: WBGG 180500Z VRB02KT 4000 HZ SCT012 BKN150 27/25 Q1013 NOSIG
Conditions at: WBGG (KUCHING (CIV/MIL, MY) observed 0500 UTC 18 August 2019
Temperature: 27.0°C (81°F)
Dewpoint: 25.0°C (77°F) [RH = 89%]
Pressure (altimeter): 29.91 inches Hg (1013.0 mb)
Winds: variable direction winds at 2 MPH (2 knots; 1.0 m/s)
Visibility: 2.49 miles (4.01 km)
Ceiling: 15000 feet AGL
Clouds: scattered clouds at 1200 feet AGL
broken clouds at 15000 feet AGL
Weather: HZ  (haze)

METAR text: WBGG 180430Z 12003KT 070V170 4000 -RA HZ SCT020 BKN150 26/24 Q1013 NOSIG
Conditions at: WBGG (KUCHING (CIV/MIL, MY) observed 0430 UTC 18 August 2019
Temperature: 26.0°C (79°F)
Dewpoint: 24.0°C (75°F) [RH = 89%]
Pressure (altimeter): 29.91 inches Hg (1013.0 mb)
Winds: from the ESE (120 degrees) at 3 MPH (3 knots; 1.5 m/s)
Visibility: 2.49 miles (4.01 km)
Ceiling: 15000 feet AGL
Clouds: scattered clouds at 2000 feet AGL
broken clouds at 15000 feet AGL
Weather: -RA HZ  (light rain, haze)

METAR text: WBGG 180400Z 13005KT 110V170 4000 -RA HZ FEW007 FEW015CB SCT020 BKN150 25/25 Q1013 NOSIG
Conditions at: WBGG (KUCHING (CIV/MIL, MY) observed 0400 UTC 18 August 2019
Temperature: 25.0°C (77°F)
Dewpoint: 25.0°C (77°F) [RH = 100%]
Pressure (altimeter): 29.91 inches Hg (1013.0 mb)
Winds: from the SE (130 degrees) at 6 MPH (5 knots; 2.6 m/s)
Visibility: 2.49 miles (4.01 km)
Ceiling: 15000 feet AGL
Clouds: few clouds at 700 feet AGL
few clouds at 1500 feet AGL
scattered clouds at 2000 feet AGL
broken clouds at 15000 feet AGL
Weather: -RA HZ  (light rain, haze)

METAR text: WBGG 180330Z 14003KT 100V170 3000 -RA HZ FEW007 FEW015CB SCT020 BKN150 25/24 Q1013 NOSIG
Conditions at: WBGG (KUCHING (CIV/MIL, MY) observed 0330 UTC 18 August 2019
Temperature: 25.0°C (77°F)
Dewpoint: 24.0°C (75°F) [RH = 94%]
Pressure (altimeter): 29.91 inches Hg (1013.0 mb)
Winds: from the SE (140 degrees) at 3 MPH (3 knots; 1.5 m/s)
Visibility: 1.86 miles (2.99 km)
Ceiling: 15000 feet AGL
Clouds: few clouds at 700 feet AGL
few clouds at 1500 feet AGL
scattered clouds at 2000 feet AGL
broken clouds at 15000 feet AGL
Weather: -RA HZ  (light rain, haze)

METAR text: WBGG 180300Z 05003KT 340V100 3000 -TSRA HZ FEW007 FEW015CB SCT020 BKN150 24/24 Q1014 NOSIG
Conditions at: WBGG (KUCHING (CIV/MIL, MY) observed 0300 UTC 18 August 2019
Temperature: 24.0°C (75°F)
Dewpoint: 24.0°C (75°F) [RH = 100%]
Pressure (altimeter): 29.94 inches Hg (1014.0 mb)
Winds: from the NE (50 degrees) at 3 MPH (3 knots; 1.5 m/s)
Visibility: 1.86 miles (2.99 km)
Ceiling: 15000 feet AGL
Clouds: few clouds at 700 feet AGL
few clouds at 1500 feet AGL
scattered clouds at 2000 feet AGL
broken clouds at 15000 feet AGL
Weather: -TSRA HZ  (light rain associated with thunderstorm(s), haze)

METAR text: WBGG 180230Z 08003KT 050V120 3000 -TSRA HZ FEW007 FEW015CB SCT020 BKN150 25/24 Q1014 NOSIG
Conditions at: WBGG (KUCHING (CIV/MIL, MY) observed 0230 UTC 18 August 2019
Temperature: 25.0°C (77°F)
Dewpoint: 24.0°C (75°F) [RH = 94%]
Pressure (altimeter): 29.94 inches Hg (1014.0 mb)
Winds: from the E (80 degrees) at 3 MPH (3 knots; 1.5 m/s)
Visibility: 1.86 miles (2.99 km)
Ceiling: 15000 feet AGL
Clouds: few clouds at 700 feet AGL
few clouds at 1500 feet AGL
scattered clouds at 2000 feet AGL
broken clouds at 15000 feet AGL
Weather: -TSRA HZ  (light rain associated with thunderstorm(s), haze)

METAR text: WBGG 180200Z 12006KT 3000 -RA HZ FEW007 FEW015CB SCT020 BKN150 25/24 Q1014 NOSIG
Conditions at: WBGG (KUCHING (CIV/MIL, MY) observed 0200 UTC 18 August 2019
Temperature: 25.0°C (77°F)
Dewpoint: 24.0°C (75°F) [RH = 94%]
Pressure (altimeter): 29.94 inches Hg (1014.0 mb)
Winds: from the ESE (120 degrees) at 7 MPH (6 knots; 3.1 m/s)
Visibility: 1.86 miles (2.99 km)
Ceiling: 15000 feet AGL
Clouds: few clouds at 700 feet AGL
few clouds at 1500 feet AGL
scattered clouds at 2000 feet AGL
broken clouds at 15000 feet AGL
Weather: -RA HZ  (light rain, haze)

METAR text: WBGG 180130Z VRB03KT 3000 -RA HZ FEW007 FEW015CB SCT020 BKN150 25/25 Q1014 NOSIG
Conditions at: WBGG (KUCHING (CIV/MIL, MY) observed 0130 UTC 18 August 2019
Temperature: 25.0°C (77°F)
Dewpoint: 25.0°C (77°F) [RH = 100%]
Pressure (altimeter): 29.94 inches Hg (1014.0 mb)
Winds: variable direction winds at 3 MPH (3 knots; 1.5 m/s)
Visibility: 1.86 miles (2.99 km)
Ceiling: 15000 feet AGL
Clouds: few clouds at 700 feet AGL
few clouds at 1500 feet AGL
scattered clouds at 2000 feet AGL
broken clouds at 15000 feet AGL
Weather: -RA HZ  (light rain, haze)

METAR text: WBGG 180100Z VRB02KT 4000 -RA HZ FEW015CB SCT020 BKN150 25/24 Q1014 TEMPO 3000 TSRA
Conditions at: WBGG (KUCHING (CIV/MIL, MY) observed 0100 UTC 18 August 2019
Temperature: 25.0°C (77°F)
Dewpoint: 24.0°C (75°F) [RH = 94%]
Pressure (altimeter): 29.94 inches Hg (1014.0 mb)
Winds: variable direction winds at 2 MPH (2 knots; 1.0 m/s)
Visibility: 2.49 miles (4.01 km)
Ceiling: 15000 feet AGL
Clouds: few clouds at 1500 feet AGL
scattered clouds at 2000 feet AGL
broken clouds at 15000 feet AGL
Weather: -RA HZ  (light rain, haze)

METAR text: WBGG 180030Z 00000KT 4000 -RA HZ FEW015CB SCT020 BKN150 25/24 Q1013 NOSIG
Conditions at: WBGG (KUCHING (CIV/MIL, MY) observed 0030 UTC 18 August 2019
Temperature: 25.0°C (77°F)
Dewpoint: 24.0°C (75°F) [RH = 94%]
Pressure (altimeter): 29.91 inches Hg (1013.0 mb)
Winds: calm
Visibility: 2.49 miles (4.01 km)
Ceiling: 15000 feet AGL
Clouds: few clouds at 1500 feet AGL
scattered clouds at 2000 feet AGL
broken clouds at 15000 feet AGL
Weather: -RA HZ  (light rain, haze)

METAR text: WBGG 180000Z VRB02KT 5000 VCSH HZ FEW015CB SCT020 BKN150 25/24 Q1013 NOSIG
Conditions at: WBGG (KUCHING (CIV/MIL, MY) observed 0000 UTC 18 August 2019
Temperature: 25.0°C (77°F)
Dewpoint: 24.0°C (75°F) [RH = 94%]
Pressure (altimeter): 29.91 inches Hg (1013.0 mb)
Winds: variable direction winds at 2 MPH (2 knots; 1.0 m/s)
Visibility: 3 miles ( 5 km)
Ceiling: 15000 feet AGL
Clouds: few clouds at 1500 feet AGL
scattered clouds at 2000 feet AGL
broken clouds at 15000 feet AGL
Weather: VCSH HZ  (showers in vicinity, haze)

METAR text: WBGG 172330Z 00000KT 5000 VCSH HZ FEW015CB SCT020 BKN150 25/24 Q1012 NOSIG
Conditions at: WBGG (KUCHING (CIV/MIL, MY) observed 2330 UTC 17 August 2019
Temperature: 25.0°C (77°F)
Dewpoint: 24.0°C (75°F) [RH = 94%]
Pressure (altimeter): 29.88 inches Hg (1012.0 mb)
Winds: calm
Visibility: 3 miles ( 5 km)
Ceiling: 15000 feet AGL
Clouds: few clouds at 1500 feet AGL
scattered clouds at 2000 feet AGL
broken clouds at 15000 feet AGL
Weather: VCSH HZ  (showers in vicinity, haze)

METAR text: WBGG 172300Z 00000KT 5000 -RA HZ FEW015CB SCT020 BKN150 25/24 Q1012 NOSIG
Conditions at: WBGG (KUCHING (CIV/MIL, MY) observed 2300 UTC 17 August 2019
Temperature: 25.0°C (77°F)
Dewpoint: 24.0°C (75°F) [RH = 94%]
Pressure (altimeter): 29.88 inches Hg (1012.0 mb)
Winds: calm
Visibility: 3 miles ( 5 km)
Ceiling: 15000 feet AGL
Clouds: few clouds at 1500 feet AGL
scattered clouds at 2000 feet AGL
broken clouds at 15000 feet AGL
Weather: -RA HZ  (light rain, haze)

METAR text: WBGG 172230Z VRB02KT 8000 -RA FEW015CB SCT020 BKN150 25/24 Q1011 NOSIG
Conditions at: WBGG (KUCHING (CIV/MIL, MY) observed 2230 UTC 17 August 2019
Temperature: 25.0°C (77°F)
Dewpoint: 24.0°C (75°F) [RH = 94%]
Pressure (altimeter): 29.85 inches Hg (1011.0 mb)
Winds: variable direction winds at 2 MPH (2 knots; 1.0 m/s)
Visibility: 5 miles ( 8 km)
Ceiling: 15000 feet AGL
Clouds: few clouds at 1500 feet AGL
scattered clouds at 2000 feet AGL
broken clouds at 15000 feet AGL
Weather: -RA  (light rain)

METAR text: WBGG 172200Z VRB01KT 9999 -RA FEW015CB SCT020 BKN150 25/24 Q1011 RETS NOSIG
Conditions at: WBGG (KUCHING (CIV/MIL, MY) observed 2200 UTC 17 August 2019
Temperature: 25.0°C (77°F)
Dewpoint: 24.0°C (75°F) [RH = 94%]
Pressure (altimeter): 29.85 inches Hg (1011.0 mb)
Winds: variable direction winds at 1 MPH (1 knots; 0.5 m/s)
Visibility: 6 or more miles (10+ km)
Ceiling: 15000 feet AGL
Clouds: few clouds at 1500 feet AGL
scattered clouds at 2000 feet AGL
broken clouds at 15000 feet AGL
Weather: -RA  (light rain)

METAR text: WBGG 172130Z VRB03KT 9999 -TSRA FEW015CB SCT020 BKN150 25/24 Q1011 NOSIG
Conditions at: WBGG (KUCHING (CIV/MIL, MY) observed 2130 UTC 17 August 2019
Temperature: 25.0°C (77°F)
Dewpoint: 24.0°C (75°F) [RH = 94%]
Pressure (altimeter): 29.85 inches Hg (1011.0 mb)
Winds: variable direction winds at 3 MPH (3 knots; 1.5 m/s)
Visibility: 6 or more miles (10+ km)
Ceiling: 15000 feet AGL
Clouds: few clouds at 1500 feet AGL
scattered clouds at 2000 feet AGL
broken clouds at 15000 feet AGL
Weather: -TSRA  (light rain associated with thunderstorm(s))

METAR text: WBGG 172100Z 01004KT 330V030 9999 -TSRA FEW015CB SCT020 BKN150 25/24 Q1010 NOSIG
Conditions at: WBGG (KUCHING (CIV/MIL, MY) observed 2100 UTC 17 August 2019
Temperature: 25.0°C (77°F)
Dewpoint: 24.0°C (75°F) [RH = 94%]
Pressure (altimeter): 29.82 inches Hg (1010.0 mb)
Winds: from the N (10 degrees) at 5 MPH (4 knots; 2.1 m/s)
Visibility: 6 or more miles (10+ km)
Ceiling: 15000 feet AGL
Clouds: few clouds at 1500 feet AGL
scattered clouds at 2000 feet AGL
broken clouds at 15000 feet AGL
Weather: -TSRA  (light rain associated with thunderstorm(s))

METAR text: WBGG 172030Z VRB01KT 8000 -TSRA FEW015CB SCT020 BKN150 25/24 Q1010 NOSIG
Conditions at: WBGG (KUCHING (CIV/MIL, MY) observed 2030 UTC 17 August 2019
Temperature: 25.0°C (77°F)
Dewpoint: 24.0°C (75°F) [RH = 94%]
Pressure (altimeter): 29.82 inches Hg (1010.0 mb)
Winds: variable direction winds at 1 MPH (1 knots; 0.5 m/s)
Visibility: 5 miles ( 8 km)
Ceiling: 15000 feet AGL
Clouds: few clouds at 1500 feet AGL
scattered clouds at 2000 feet AGL
broken clouds at 15000 feet AGL
Weather: -TSRA  (light rain associated with thunderstorm(s))

METAR text: WBGG 172000Z VRB05KT 4000 TSRA FEW015CB SCT020 BKN150 25/24 Q1010 NOSIG
Conditions at: WBGG (KUCHING (CIV/MIL, MY) observed 2000 UTC 17 August 2019
Temperature: 25.0°C (77°F)
Dewpoint: 24.0°C (75°F) [RH = 94%]
Pressure (altimeter): 29.82 inches Hg (1010.0 mb)
Winds: variable direction winds at 6 MPH (5 knots; 2.6 m/s)
Visibility: 2.49 miles (4.01 km)
Ceiling: 15000 feet AGL
Clouds: few clouds at 1500 feet AGL
scattered clouds at 2000 feet AGL
broken clouds at 15000 feet AGL
Weather: TSRA  (rain associated with thunderstorm(s))

METAR text: WBGG 171930Z 12004KT 090V160 8000 TS FEW015CB SCT020 BKN150 25/24 Q1010 NOSIG
Conditions at: WBGG (KUCHING (CIV/MIL, MY) observed 1930 UTC 17 August 2019
Temperature: 25.0°C (77°F)
Dewpoint: 24.0°C (75°F) [RH = 94%]
Pressure (altimeter): 29.82 inches Hg (1010.0 mb)
Winds: from the ESE (120 degrees) at 5 MPH (4 knots; 2.1 m/s)
Visibility: 5 miles ( 8 km)
Ceiling: 15000 feet AGL
Clouds: few clouds at 1500 feet AGL
scattered clouds at 2000 feet AGL
broken clouds at 15000 feet AGL
Weather: TS  (thunderstorm)

METAR text: WBGG 171900Z VRB01KT 8000 TS FEW015CB SCT020 BKN150 26/23 Q1010 NOSIG
Conditions at: WBGG (KUCHING (CIV/MIL, MY) observed 1900 UTC 17 August 2019
Temperature: 26.0°C (79°F)
Dewpoint: 23.0°C (73°F) [RH = 84%]
Pressure (altimeter): 29.82 inches Hg (1010.0 mb)
Winds: variable direction winds at 1 MPH (1 knots; 0.5 m/s)
Visibility: 5 miles ( 8 km)
Ceiling: 15000 feet AGL
Clouds: few clouds at 1500 feet AGL
scattered clouds at 2000 feet AGL
broken clouds at 15000 feet AGL
Weather: TS  (thunderstorm)

METAR text: WBGG 171830Z 25003KT 190V300 8000 TS FEW015CB SCT020 BKN150 26/23 Q1010 NOSIG
Conditions at: WBGG (KUCHING (CIV/MIL, MY) observed 1830 UTC 17 August 2019
Temperature: 26.0°C (79°F)
Dewpoint: 23.0°C (73°F) [RH = 84%]
Pressure (altimeter): 29.82 inches Hg (1010.0 mb)
Winds: from the WSW (250 degrees) at 3 MPH (3 knots; 1.5 m/s)
Visibility: 5 miles ( 8 km)
Ceiling: 15000 feet AGL
Clouds: few clouds at 1500 feet AGL
scattered clouds at 2000 feet AGL
broken clouds at 15000 feet AGL
Weather: TS  (thunderstorm)

METAR text: WBGG 171800Z 23003KT 170V280 8000 TS FEW015CB SCT020 BKN150 26/23 Q1010 NOSIG
Conditions at: WBGG (KUCHING (CIV/MIL, MY) observed 1800 UTC 17 August 2019
Temperature: 26.0°C (79°F)
Dewpoint: 23.0°C (73°F) [RH = 84%]
Pressure (altimeter): 29.82 inches Hg (1010.0 mb)
Winds: from the SW (230 degrees) at 3 MPH (3 knots; 1.5 m/s)
Visibility: 5 miles ( 8 km)
Ceiling: 15000 feet AGL
Clouds: few clouds at 1500 feet AGL
scattered clouds at 2000 feet AGL
broken clouds at 15000 feet AGL
Weather: TS  (thunderstorm)

METAR text: WBGG 171730Z VRB02KT 8000 TS FEW015CB SCT150 BKN300 25/23 Q1011 NOSIG
Conditions at: WBGG (KUCHING (CIV/MIL, MY) observed 1730 UTC 17 August 2019
Temperature: 25.0°C (77°F)
Dewpoint: 23.0°C (73°F) [RH = 89%]
Pressure (altimeter): 29.85 inches Hg (1011.0 mb)
Winds: variable direction winds at 2 MPH (2 knots; 1.0 m/s)
Visibility: 5 miles ( 8 km)
Ceiling: 30000 feet AGL
Clouds: few clouds at 1500 feet AGL
scattered clouds at 15000 feet AGL
broken clouds at 30000 feet AGL
Weather: TS  (thunderstorm)

METAR text: WBGG 171700Z VRB02KT 8000 FEW015CB BKN150 BKN300 26/23 Q1011 NOSIG
Conditions at: WBGG (KUCHING (CIV/MIL, MY) observed 1700 UTC 17 August 2019
Temperature: 26.0°C (79°F)
Dewpoint: 23.0°C (73°F) [RH = 84%]
Pressure (altimeter): 29.85 inches Hg (1011.0 mb)
Winds: variable direction winds at 2 MPH (2 knots; 1.0 m/s)
Visibility: 5 miles ( 8 km)
Ceiling: 15000 feet AGL
Clouds: few clouds at 1500 feet AGL
broken clouds at 15000 feet AGL
broken clouds at 30000 feet AGL
Weather: no significant weather observed at this time

Forecast for: WBGG (KUCHING (CIV/MIL, MY)
Text: TAF WBGG 182300Z 1900/2000 27006KT 9999 FEW020
Forecast period: 0000 UTC 19 August 2019 to 0000 UTC 20 August 2019
Forecast type: FROM: standard forecast or significant change
Winds: from the W (270 degrees) at 7 MPH (6 knots; 3.1 m/s)
Visibility: 6 or more miles 10+ km)
Ceiling: at least 12,000 feet AGL
Clouds: few clouds at 2000 feet AGL
Weather: no significant weather forecast for this period